This is the latest recevied weather packets stored in our database for station/object JH7UAX-10. If no packets are shown the sender has not sent any weather packets the latest 10 day(s).
| Time | Temp. | Humidity | Pressure | Rain* | Wind** | Luminosity | Snow |
|---|---|---|---|---|---|---|---|
| 1777585078 | 10° C | 75% | 1024.7 hPa | 0 mm | - | - | - |
| 1777584606 | 8.89° C | 77% | 1024.9 hPa | 0 mm | - | - | - |
| 1777584178 | 8.33° C | 78% | 1025.1 hPa | 0 mm | - | - | - |
| 1777583705 | 7.78° C | 80% | 1025.2 hPa | 0 mm | - | - | - |
| 1777583277 | 6.11° C | 83% | 1025.4 hPa | 0 mm | - | - | - |
| 1777582805 | 5.56° C | 82% | 1025.6 hPa | 0 mm | - | - | - |
| 1777582377 | 5° C | 82% | 1026 hPa | 0 mm | - | - | - |
| 1777581479 | 4.44° C | 81% | 1026.4 hPa | 0 mm | - | - | - |
| 1777581005 | 4.44° C | 82% | 1026.6 hPa | 0 mm | - | - | - |
| 1777580579 | 4.44° C | 81% | 1026.7 hPa | 0 mm | - | - | - |
| 1777579677 | 4.44° C | 80% | 1026.9 hPa | 0 mm | - | - | - |
| 1777578778 | 4.44° C | 79% | 1026.8 hPa | 0 mm | - | - | - |
| 1777577878 | 5° C | 79% | 1026.8 hPa | 0 mm | - | - | - |
| 1777577406 | 4.44° C | 79% | 1026.8 hPa | 0 mm | - | - | - |
| 1777576978 | 4.44° C | 78% | 1026.9 hPa | 0 mm | - | - | - |
| 1777576506 | 4.44° C | 77% | 1026.9 hPa | 0 mm | - | - | - |
| 1777576078 | 4.44° C | 77% | 1027.1 hPa | 0 mm | - | - | - |
| 1777575605 | 4.44° C | 76% | 1027.3 hPa | 0 mm | - | - | - |
| 1777575177 | 5° C | 77% | 1027.2 hPa | 0 mm | - | - | - |
| 1777574705 | 5° C | 78% | 1027.2 hPa | 0 mm | - | - | - |
| 1777574279 | 4.44° C | 79% | 1027.3 hPa | 0 mm | - | - | - |
| 1777573805 | 4.44° C | 78% | 1027.5 hPa | 0 mm | - | - | - |
| 1777573379 | 5° C | 78% | 1027.8 hPa | 0 mm | - | - | - |
| 1777572906 | 5° C | 78% | 1028 hPa | 0 mm | - | - | - |
| 1777572479 | 5° C | 76% | 1028 hPa | 0 mm | - | - | - |
* Rain latest hour (hover to see other rain measurements)
** Current wind speed in m/s (hover to see current wind gust speed)